Time;durP1;ratioP1;P1;durP2;ratioP2;P2;SDS_P1;SDS_P2;PMS_P1;PMS_P2;Temp;Humidity;BMP_temperature;BMP_pressure;BME280_temperature;BME280_humidity;BME280_pressure;Samples;Min_cycle;Max_cycle;Signal;HPM_P1;HPM_P2
2021/12/10 00:00:49;;;;;;;;;;;;;;;2.67;81.41;98839.00;4456703;32;35037;-65
2021/12/10 00:03:36;;;;;;;;;;;;;;;2.26;84.18;98856.13;4454370;32;34095;-64
2021/12/10 00:06:13;;;;;;;;;;;;;;;2.40;82.46;98858.66;4455562;32;33945;-65
2021/12/10 00:08:42;;;;;;;;;;;;;;;2.52;81.39;98850.03;4455567;32;35072;-65
2021/12/10 00:11:12;;;;;;;;;;;;;;;2.86;79.97;98849.53;4452300;32;34066;-64
2021/12/10 00:13:44;;;;;;;;;;;;;;;2.89;79.58;98846.25;4439489;32;33584;-64
2021/12/10 00:16:12;;;;;;;;;;;;;;;2.91;79.46;98840.44;4448384;32;33811;-64
2021/12/10 00:18:43;;;;;;;;;;;;;;;2.54;80.57;98833.13;4454280;32;34291;-64
2021/12/10 00:21:10;;;;;;;;;;;;;;;2.21;82.07;98836.19;4455191;32;34474;-64
2021/12/10 00:23:38;;;;;;;;;;;;;;;2.56;80.77;98836.66;4447324;32;34317;-64
2021/12/10 00:26:05;;;;;;;;;;;;;;;3.03;79.21;98854.75;4439511;32;34175;-64
2021/12/10 00:28:34;;;;;;;;;;;;;;;2.54;80.70;98863.78;4448223;32;34758;-64
2021/12/10 00:34:02;;;;;;;;;;;;;;;2.17;82.68;98871.75;4453267;32;33347;-64
2021/12/10 00:36:29;;;;;;;;;;;;;;;2.32;82.89;98876.06;4437163;32;33935;-64
2021/12/10 00:38:59;;;;;;;;;;;;;;;1.46;85.59;98873.13;4450635;32;33850;-65
2021/12/10 00:41:26;;;;;;;;;;;;;;;1.69;85.83;98875.50;4440272;32;34542;-65
2021/12/10 00:43:53;;;;;;;;;;;;;;;1.97;83.23;98877.28;4452624;32;34368;-64
2021/12/10 00:46:21;;;;;;;;;;;;;;;2.18;83.80;98877.72;4451393;32;34290;-64
2021/12/10 00:48:48;;;;;;;;;;;;;;;1.75;85.40;98882.66;4448114;32;34202;-64
2021/12/10 00:51:15;;;;;;;;;;;;;;;1.71;85.05;98888.37;4453351;32;34922;-65
2021/12/10 00:53:43;;;;;;;;;;;;;;;1.65;86.06;98876.09;4450305;32;33494;-64
2021/12/10 00:56:10;;;;;;;;;;;;;;;2.17;84.26;98871.75;4446978;32;34810;-65
2021/12/10 00:58:37;;;;;;;;;;;;;;;2.59;81.70;98875.97;4453279;32;35083;-64
2021/12/10 01:01:06;;;;;;;;;;;;;;;2.57;81.38;98881.00;4450958;32;34525;-65
2021/12/10 01:03:37;;;;;;;;;;;;;;;3.08;79.38;98869.56;4450141;32;33891;-65
2021/12/10 01:06:07;;;;;;;;;;;;;;;2.98;79.89;98866.41;4451107;32;34331;-65
2021/12/10 01:08:35;;;;;;;;;;;;;;;2.22;82.53;98873.69;4451494;32;33891;-64
2021/12/10 01:11:05;;;;;;;;;;;;;;;3.20;79.15;98859.16;4452855;32;34445;-65
2021/12/10 01:13:35;;;;;;;;;;;;;;;2.87;79.37;98860.63;4454460;32;32613;-64
2021/12/10 01:24:50;;;;;;;;;;;;;;;1.46;86.86;98868.03;4449075;32;33010;-64
2021/12/10 01:27:29;;;;;;;;;;;;;;;1.71;85.84;98861.16;4451314;32;34018;-64
2021/12/10 01:29:58;;;;;;;;;;;;;;;1.98;84.82;98863.72;4447384;32;33630;-64
2021/12/10 01:32:26;;;;;;;;;;;;;;;1.95;84.57;98868.62;4433771;32;32607;-65
2021/12/10 01:34:54;;;;;;;;;;;;;;;2.06;85.39;98872.72;4434836;32;33494;-65
2021/12/10 01:37:21;;;;;;;;;;;;;;;1.55;86.72;98876.28;4451198;32;34705;-64
2021/12/10 01:39:48;;;;;;;;;;;;;;;1.10;88.50;98882.66;4453136;32;32723;-64
2021/12/10 01:42:44;;;;;;;;;;;;;;;1.34;87.65;98884.28;4455115;32;35103;-64
2021/12/10 01:45:06;;;;;;;;;;;;;;;1.13;88.60;98885.41;4454992;32;33545;-64
2021/12/10 01:47:34;;;;;;;;;;;;;;;1.24;87.71;98879.38;4454398;32;33950;-64
2021/12/10 01:50:03;;;;;;;;;;;;;;;1.50;86.50;98882.75;4453258;32;33833;-65
2021/12/10 01:52:31;;;;;;;;;;;;;;;1.59;84.75;98888.47;4454651;32;34936;-63
2021/12/10 01:54:59;;;;;;;;;;;;;;;1.35;86.65;98875.88;4459480;32;33592;-65
2021/12/10 01:57:27;;;;;;;;;;;;;;;2.68;80.82;98876.53;4453655;32;33945;-65
2021/12/10 01:59:55;;;;;;;;;;;;;;;2.27;81.36;98883.41;4453277;32;34105;-66
2021/12/10 02:02:26;;;;;;;;;;;;;;;1.92;83.95;98873.53;4452290;32;34564;-65
2021/12/10 02:04:53;;;;;;;;;;;;;;;1.82;85.13;98876.31;4454172;32;34364;-64
2021/12/10 02:07:22;;;;;;;;;;;;;;;2.20;82.77;98876.16;4438918;32;34721;-64
2021/12/10 02:09:49;;;;;;;;;;;;;;;1.80;84.66;98872.75;4453430;32;34595;-65
2021/12/10 02:12:18;;;;;;;;;;;;;;;2.66;80.48;98878.13;4457340;32;34771;-64
2021/12/10 02:14:46;;;;;;;;;;;;;;;2.10;83.74;98884.91;4452128;32;33518;-64
2021/12/10 02:17:13;;;;;;;;;;;;;;;1.78;83.87;98880.31;4453811;32;33647;-64
2021/12/10 02:19:41;;;;;;;;;;;;;;;1.27;86.43;98874.44;4453804;32;34082;-64
2021/12/10 02:22:08;;;;;;;;;;;;;;;1.29;85.49;98872.00;4452910;32;34586;-64
2021/12/10 02:24:35;;;;;;;;;;;;;;;1.55;86.11;98877.16;4456704;32;33410;-65
2021/12/10 02:27:04;;;;;;;;;;;;;;;1.70;84.52;98882.38;4453757;32;34117;-64
2021/12/10 02:29:33;;;;;;;;;;;;;;;1.00;87.06;98882.81;4453922;32;34982;-66
2021/12/10 02:32:00;;;;;;;;;;;;;;;0.97;87.96;98893.72;4452629;32;34640;-65
2021/12/10 02:34:28;;;;;;;;;;;;;;;0.95;87.58;98891.06;4450947;32;33626;-65
2021/12/10 02:36:56;;;;;;;;;;;;;;;1.23;86.17;98903.09;4454734;32;34027;-63
2021/12/10 02:39:24;;;;;;;;;;;;;;;1.23;85.85;98898.00;4457782;32;32422;-65
2021/12/10 02:41:51;;;;;;;;;;;;;;;1.48;85.32;98891.97;4455292;32;34302;-64
2021/12/10 02:44:20;;;;;;;;;;;;;;;1.60;85.43;98897.88;4447063;32;33600;-64
2021/12/10 02:46:47;;;;;;;;;;;;;;;1.17;85.52;98893.38;4450718;32;34899;-64
2021/12/10 02:49:15;;;;;;;;;;;;;;;1.45;84.48;98892.66;4451799;32;34257;-64
2021/12/10 02:51:43;;;;;;;;;;;;;;;1.16;85.35;98886.50;4459806;32;34249;-65
2021/12/10 02:54:11;;;;;;;;;;;;;;;1.23;85.60;98892.03;4454597;32;33484;-65
2021/12/10 02:56:39;;;;;;;;;;;;;;;1.31;84.70;98884.09;4454379;32;35021;-64
2021/12/10 02:59:06;;;;;;;;;;;;;;;1.48;83.89;98885.19;4456924;32;33972;-64
2021/12/10 03:01:41;;;;;;;;;;;;;;;1.55;84.04;98877.16;4453967;32;34999;-64
2021/12/10 03:04:09;;;;;;;;;;;;;;;1.11;85.03;98876.78;4449484;32;33621;-64
2021/12/10 03:06:40;;;;;;;;;;;;;;;1.18;85.03;98871.31;4452615;32;34003;-65
2021/12/10 03:09:07;;;;;;;;;;;;;;;0.94;85.46;98873.97;4450835;32;34910;-65
2021/12/10 03:11:35;;;;;;;;;;;;;;;1.00;85.26;98882.81;4454332;32;34141;-64
2021/12/10 03:14:08;;;;;;;;;;;;;;;1.02;85.41;98883.81;4451830;32;34018;-64
2021/12/10 03:16:36;;;;;;;;;;;;;;;1.24;85.14;98879.38;4452942;32;34040;-64
2021/12/10 03:19:04;;;;;;;;;;;;;;;0.92;85.86;98878.09;4451651;32;34055;-64
2021/12/10 03:21:31;;;;;;;;;;;;;;;0.68;87.35;98874.75;4446290;32;34278;-65
2021/12/10 03:23:59;;;;;;;;;;;;;;;0.57;87.86;98870.59;4450299;32;33574;-64
2021/12/10 03:26:26;;;;;;;;;;;;;;;0.56;87.69;98874.81;4452717;32;34135;-64
2021/12/10 03:28:53;;;;;;;;;;;;;;;0.64;86.85;98876.97;4452442;32;34013;-64
2021/12/10 03:31:21;;;;;;;;;;;;;;;0.75;86.82;98884.59;4453858;32;34342;-64
2021/12/10 03:33:50;;;;;;;;;;;;;;;0.96;86.15;98886.81;4452105;32;34168;-64
2021/12/10 03:36:17;;;;;;;;;;;;;;;0.35;88.22;98884.41;4451423;32;34229;-64
2021/12/10 03:38:49;;;;;;;;;;;;;;;0.34;88.09;98887.72;4452702;32;35019;-64
2021/12/10 03:41:16;;;;;;;;;;;;;;;0.43;88.22;98892.56;4450662;32;34610;-65
2021/12/10 03:43:44;;;;;;;;;;;;;;;0.52;88.40;98893.22;4456966;32;34300;-64
2021/12/10 03:46:11;;;;;;;;;;;;;;;0.46;87.90;98892.78;4449637;32;34158;-65
2021/12/10 03:48:40;;;;;;;;;;;;;;;0.59;86.86;98899.59;4450979;32;34075;-64
2021/12/10 03:51:09;;;;;;;;;;;;;;;0.52;87.64;98893.22;4441810;32;34247;-64
2021/12/10 03:53:37;;;;;;;;;;;;;;;1.08;86.15;98891.88;4438707;32;33568;-64
2021/12/10 03:56:06;;;;;;;;;;;;;;;1.55;83.52;98891.59;4451903;32;35099;-65
2021/12/10 03:58:33;;;;;;;;;;;;;;;1.02;84.33;98896.56;4452058;32;34883;-65
2021/12/10 04:01:01;;;;;;;;;;;;;;;1.27;83.33;98907.62;4437858;32;34978;-64
2021/12/10 04:03:29;;;;;;;;;;;;;;;0.96;84.91;98907.22;4439010;32;33321;-65
2021/12/10 04:05:56;;;;;;;;;;;;;;;1.48;84.06;98894.53;4450870;32;35009;-65
2021/12/10 04:08:23;;;;;;;;;;;;;;;1.20;83.13;98902.91;4454055;32;34054;-65
2021/12/10 04:10:51;;;;;;;;;;;;;;;1.14;84.06;98897.38;4451421;32;34246;-64
2021/12/10 04:13:19;;;;;;;;;;;;;;;1.08;85.24;98897.88;4455740;32;33451;-64
2021/12/10 04:15:46;;;;;;;;;;;;;;;1.08;85.03;98907.16;4449124;32;34275;-64
2021/12/10 04:18:13;;;;;;;;;;;;;;;1.49;83.03;98904.84;4454462;32;33872;-65
2021/12/10 04:20:41;;;;;;;;;;;;;;;1.33;83.76;98905.50;4454472;32;34992;-64
2021/12/10 04:23:09;;;;;;;;;;;;;;;1.14;84.36;98912.69;4457686;32;33041;-64
2021/12/10 04:25:37;;;;;;;;;;;;;;;0.93;84.81;98922.34;4448475;32;34870;-64
2021/12/10 04:28:08;;;;;;;;;;;;;;;0.93;85.16;98928.31;4453544;32;33946;-65
2021/12/10 04:30:39;;;;;;;;;;;;;;;0.95;85.86;98926.75;4451796;32;35069;-64
2021/12/10 04:33:07;;;;;;;;;;;;;;;0.45;87.24;98926.69;4455610;32;34203;-64
2021/12/10 04:35:34;;;;;;;;;;;;;;;0.55;86.92;98928.22;4451521;32;34873;-64
2021/12/10 04:38:02;;;;;;;;;;;;;;;0.61;87.48;98932.84;4452685;32;33859;-64
2021/12/10 04:40:30;;;;;;;;;;;;;;;1.03;84.98;98932.38;4453100;32;34285;-64
2021/12/10 04:42:57;;;;;;;;;;;;;;;0.75;85.51;98942.31;4457145;32;34275;-64
2021/12/10 04:45:24;;;;;;;;;;;;;;;1.29;83.63;98939.22;4453303;32;34133;-64
2021/12/10 04:47:52;;;;;;;;;;;;;;;1.60;81.24;98940.38;4440159;32;34928;-64
2021/12/10 04:50:23;;;;;;;;;;;;;;;1.55;82.43;98938.41;4440496;32;35238;-64
2021/12/10 04:52:50;;;;;;;;;;;;;;;1.87;80.41;98931.09;4454841;32;34111;-65
2021/12/10 04:55:18;;;;;;;;;;;;;;;1.48;81.81;98946.44;4455022;32;34830;-64
2021/12/10 04:57:45;;;;;;;;;;;;;;;1.51;81.57;98948.34;4454141;32;34114;-64
2021/12/10 05:00:14;;;;;;;;;;;;;;;1.56;81.52;98955.50;4454428;32;32682;-64
2021/12/10 05:02:44;;;;;;;;;;;;;;;1.74;81.05;98963.50;4454654;32;33811;-64
2021/12/10 05:05:12;;;;;;;;;;;;;;;1.46;81.74;98972.66;4439900;32;32402;-64
2021/12/10 05:07:39;;;;;;;;;;;;;;;1.27;83.01;98980.72;4449668;32;34285;-64
2021/12/10 05:10:10;;;;;;;;;;;;;;;1.16;83.69;98982.56;4452498;32;34454;-64
2021/12/10 05:12:37;;;;;;;;;;;;;;;1.45;82.42;98970.88;4455412;32;33004;-64
2021/12/10 05:15:09;;;;;;;;;;;;;;;1.44;82.71;98964.00;4453547;32;34016;-65
2021/12/10 05:17:38;;;;;;;;;;;;;;;1.68;81.24;98968.19;4447926;32;34129;-64
2021/12/10 05:20:11;;;;;;;;;;;;;;;1.03;84.28;98962.09;4452076;32;34258;-65
2021/12/10 05:22:39;;;;;;;;;;;;;;;1.33;83.17;98966.75;4454945;32;33438;-64
2021/12/10 05:25:07;;;;;;;;;;;;;;;1.49;81.62;98968.66;4441230;32;34008;-64
2021/12/10 05:27:34;;;;;;;;;;;;;;;1.48;81.73;98974.50;4440927;32;33968;-64
2021/12/10 05:30:01;;;;;;;;;;;;;;;1.26;83.29;98974.75;4451139;32;35135;-64
2021/12/10 05:32:29;;;;;;;;;;;;;;;1.63;82.79;98969.56;4451736;32;33464;-65
2021/12/10 05:34:56;;;;;;;;;;;;;;;1.55;82.17;98970.72;4454480;32;33859;-65
2021/12/10 05:37:23;;;;;;;;;;;;;;;2.59;78.55;98962.88;4454852;32;33939;-65
2021/12/10 05:39:50;;;;;;;;;;;;;;;3.06;75.85;98973.50;4454952;32;34763;-64
2021/12/10 05:42:17;;;;;;;;;;;;;;;2.72;76.56;98978.22;4453883;32;33978;-65
2021/12/10 05:44:45;;;;;;;;;;;;;;;2.70;76.89;98977.22;4453106;32;33866;-64
2021/12/10 05:47:12;;;;;;;;;;;;;;;3.01;75.55;98967.22;4456104;32;34180;-65
2021/12/10 05:49:40;;;;;;;;;;;;;;;3.75;73.19;98958.81;4445207;32;34842;-65
2021/12/10 05:52:07;;;;;;;;;;;;;;;4.08;72.17;98966.66;4453180;32;33699;-65
2021/12/10 05:54:35;;;;;;;;;;;;;;;4.04;71.94;98957.91;4455125;32;34186;-65
2021/12/10 05:57:03;;;;;;;;;;;;;;;4.20;71.16;98961.34;4453113;32;34058;-65
2021/12/10 05:59:30;;;;;;;;;;;;;;;4.01;72.02;98960.28;4454901;32;33130;-64
2021/12/10 06:01:57;;;;;;;;;;;;;;;3.74;72.93;98955.34;4452256;32;33623;-64
2021/12/10 06:04:27;;;;;;;;;;;;;;;3.34;73.79;98950.47;4451990;32;34391;-65
2021/12/10 06:06:55;;;;;;;;;;;;;;;2.77;75.67;98951.25;4454430;32;34305;-64
2021/12/10 06:09:23;;;;;;;;;;;;;;;2.42;78.30;98944.84;4453237;32;33735;-64
2021/12/10 06:11:50;;;;;;;;;;;;;;;2.31;78.48;98941.59;4456176;32;33733;-64
2021/12/10 06:14:17;;;;;;;;;;;;;;;2.46;78.04;98944.25;4454035;32;33983;-64
2021/12/10 06:16:44;;;;;;;;;;;;;;;2.12;79.18;98939.53;4440750;32;33173;-64
2021/12/10 06:19:12;;;;;;;;;;;;;;;2.47;78.66;98940.91;4454099;32;34364;-64
2021/12/10 06:21:39;;;;;;;;;;;;;;;1.43;82.56;98936.72;4440261;32;32850;-64
2021/12/10 06:24:06;;;;;;;;;;;;;;;1.47;82.38;98933.56;4453313;32;34274;-65
2021/12/10 06:26:34;;;;;;;;;;;;;;;1.75;82.20;98934.59;4452686;32;34285;-64
2021/12/10 06:29:01;;;;;;;;;;;;;;;1.66;81.53;98931.47;4454437;32;34909;-64
2021/12/10 06:31:29;;;;;;;;;;;;;;;1.88;81.69;98927.75;4436143;32;34075;-65
2021/12/10 06:33:57;;;;;;;;;;;;;;;1.65;82.91;98924.59;4451194;32;34999;-65
2021/12/10 06:36:25;;;;;;;;;;;;;;;2.59;79.62;98924.53;4451206;32;34056;-65
2021/12/10 06:38:52;;;;;;;;;;;;;;;1.63;82.72;98921.06;4437238;32;32747;-65
2021/12/10 06:41:20;;;;;;;;;;;;;;;1.44;83.68;98933.37;4451200;32;34070;-65
2021/12/10 06:43:48;;;;;;;;;;;;;;;1.33;84.68;98938.66;4452972;32;34554;-64
2021/12/10 06:46:15;;;;;;;;;;;;;;;1.56;83.13;98940.19;4452225;32;34100;-65
2021/12/10 06:48:42;;;;;;;;;;;;;;;1.83;82.06;98927.44;4450478;32;34347;-64
2021/12/10 06:51:13;;;;;;;;;;;;;;;1.53;83.40;98934.00;4447293;32;33673;-64
2021/12/10 06:53:41;;;;;;;;;;;;;;;1.78;82.38;98936.50;4441300;32;33256;-65
2021/12/10 06:56:09;;;;;;;;;;;;;;;1.99;81.54;98942.13;4457206;32;35040;-65
2021/12/10 06:58:37;;;;;;;;;;;;;;;2.22;80.82;98956.37;4438418;32;34185;-64
2021/12/10 07:01:13;;;;;;;;;;;;;;;3.03;77.70;98945.16;4455790;32;33270;-65
2021/12/10 07:03:41;;;;;;;;;;;;;;;2.46;78.59;98953.59;4450838;32;33893;-65
2021/12/10 07:06:09;;;;;;;;;;;;;;;3.07;76.86;98943.69;4460327;32;33997;-65
2021/12/10 07:08:37;;;;;;;;;;;;;;;3.01;77.16;98939.06;4452054;32;34460;-65
2021/12/10 07:11:06;;;;;;;;;;;;;;;3.23;76.08;98938.69;4453874;32;33827;-65
2021/12/10 07:13:33;;;;;;;;;;;;;;;3.70;74.64;98935.47;4454060;32;34873;-65
2021/12/10 07:16:01;;;;;;;;;;;;;;;4.05;73.03;98939.16;4439400;32;34228;-65
2021/12/10 07:18:28;;;;;;;;;;;;;;;4.39;71.23;98935.06;4453811;32;35128;-65
2021/12/10 07:20:56;;;;;;;;;;;;;;;2.73;76.83;98941.63;4453688;32;33698;-65
2021/12/10 07:23:23;;;;;;;;;;;;;;;1.93;80.89;98932.38;4438183;32;32386;-65
2021/12/10 07:25:51;;;;;;;;;;;;;;;1.85;82.09;98927.56;4442010;32;34901;-64
2021/12/10 07:28:19;;;;;;;;;;;;;;;2.25;80.37;98935.22;4453355;32;34065;-64
2021/12/10 07:30:47;;;;;;;;;;;;;;;1.44;83.62;98933.37;4439240;32;31859;-65
2021/12/10 07:33:16;;;;;;;;;;;;;;;2.05;81.66;98939.94;4448862;32;35345;-65
2021/12/10 07:35:44;;;;;;;;;;;;;;;2.86;78.55;98926.25;4450264;32;34154;-65
2021/12/10 07:38:11;;;;;;;;;;;;;;;2.76;77.82;98916.22;4453059;32;34473;-65
2021/12/10 07:40:39;;;;;;;;;;;;;;;3.30;76.58;98901.53;4450724;32;33709;-65
2021/12/10 07:43:06;;;;;;;;;;;;;;;2.92;76.39;98912.97;4452895;32;33969;-64
2021/12/10 07:45:51;;;;;;;;;;;;;;;2.65;77.96;98912.16;4453101;32;33995;-64
2021/12/10 07:48:20;;;;;;;;;;;;;;;3.03;76.83;98918.69;4452354;32;34376;-65
2021/12/10 07:50:58;;;;;;;;;;;;;;;2.43;78.41;98915.91;4456777;32;34342;-65
2021/12/10 07:53:27;;;;;;;;;;;;;;;2.39;78.51;98907.97;4455904;32;34616;-65
2021/12/10 07:55:55;;;;;;;;;;;;;;;2.66;78.09;98901.13;4456159;32;34182;-66
2021/12/10 07:58:23;;;;;;;;;;;;;;;3.15;75.80;98886.19;4454572;32;34212;-65
2021/12/10 08:00:50;;;;;;;;;;;;;;;3.52;74.92;98884.09;4455610;32;34012;-65
2021/12/10 08:03:18;;;;;;;;;;;;;;;4.22;71.46;98873.47;4448001;32;34157;-65
2021/12/10 08:05:46;;;;;;;;;;;;;;;4.20;71.56;98875.06;4450545;32;34959;-65
2021/12/10 08:08:13;;;;;;;;;;;;;;;4.36;70.47;98869.09;4457759;32;33726;-64
2021/12/10 08:10:40;;;;;;;;;;;;;;;4.67;69.69;98870.72;4456155;32;33263;-65
2021/12/10 08:13:09;;;;;;;;;;;;;;;4.66;69.52;98871.56;4459171;32;34089;-64
2021/12/10 08:15:36;;;;;;;;;;;;;;;4.53;69.85;98873.44;4455157;32;34783;-65
2021/12/10 08:18:04;;;;;;;;;;;;;;;4.58;69.77;98878.84;4448514;32;35184;-64
2021/12/10 08:20:31;;;;;;;;;;;;;;;4.08;71.11;98877.84;4453849;32;33629;-65
2021/12/10 08:22:58;;;;;;;;;;;;;;;4.11;71.45;98883.16;4440019;32;34012;-65
2021/12/10 08:25:26;;;;;;;;;;;;;;;4.28;70.82;98885.75;4452214;32;34540;-65
2021/12/10 08:27:54;;;;;;;;;;;;;;;4.25;71.28;98891.59;4451605;32;34851;-66
2021/12/10 08:30:22;;;;;;;;;;;;;;;4.04;72.03;98893.84;4447081;32;34267;-64
2021/12/10 08:32:52;;;;;;;;;;;;;;;4.42;70.54;98900.19;4440451;32;34687;-66
2021/12/10 08:35:20;;;;;;;;;;;;;;;4.15;70.87;98899.56;4454612;32;34828;-65
2021/12/10 08:37:47;;;;;;;;;;;;;;;4.14;71.32;98908.94;4451145;32;33912;-65
2021/12/10 08:40:18;;;;;;;;;;;;;;;4.85;68.56;98894.81;4451421;32;33481;-65
2021/12/10 08:42:45;;;;;;;;;;;;;;;4.82;68.68;98897.19;4452320;32;34876;-65
2021/12/10 08:45:12;;;;;;;;;;;;;;;4.46;70.25;98899.56;4452971;32;34813;-65
2021/12/10 08:47:40;;;;;;;;;;;;;;;4.51;70.29;98900.69;4451553;32;34924;-66
2021/12/10 08:50:08;;;;;;;;;;;;;;;4.59;69.42;98902.78;4452548;32;34331;-65
2021/12/10 08:52:35;;;;;;;;;;;;;;;4.53;69.84;98893.97;4444804;32;33226;-66
2021/12/10 08:55:03;;;;;;;;;;;;;;;5.16;67.76;98888.69;4431507;32;34342;-65
2021/12/10 08:57:30;;;;;;;;;;;;;;;4.91;68.29;98884.84;4438954;32;34225;-66
2021/12/10 08:59:58;;;;;;;;;;;;;;;5.24;67.61;98881.37;4454371;32;34304;-65
2021/12/10 09:02:25;;;;;;;;;;;;;;;5.56;66.66;98889.81;4452453;32;34074;-66
2021/12/10 09:04:53;;;;;;;;;;;;;;;5.33;67.69;98884.41;4453136;32;34752;-66
2021/12/10 09:07:21;;;;;;;;;;;;;;;5.76;65.90;98877.97;4453327;32;35018;-66
2021/12/10 09:09:48;;;;;;;;;;;;;;;5.65;66.14;98883.44;4451235;32;33012;-66
2021/12/10 09:12:18;;;;;;;;;;;;;;;5.61;65.65;98889.25;4457534;32;34971;-65
2021/12/10 09:14:49;;;;;;;;;;;;;;;5.32;66.70;98901.50;4457440;32;33851;-67
2021/12/10 09:17:20;;;;;;;;;;;;;;;4.86;69.35;98901.69;4452886;32;34541;-66
2021/12/10 09:19:54;;;;;;;;;;;;;;;5.28;68.41;98898.72;4448294;32;33628;-66
2021/12/10 09:22:23;;;;;;;;;;;;;;;4.81;69.45;98900.59;4454396;32;33923;-66
2021/12/10 09:24:54;;;;;;;;;;;;;;;4.51;70.41;98908.38;4443562;32;36169;-65
2021/12/10 09:27:22;;;;;;;;;;;;;;;4.04;72.09;98900.66;4452151;32;35251;-65
2021/12/10 09:29:50;;;;;;;;;;;;;;;4.15;72.11;98909.81;4450860;32;34165;-64
2021/12/10 09:32:20;;;;;;;;;;;;;;;4.40;71.44;98901.78;4451411;32;33600;-64
2021/12/10 09:34:48;;;;;;;;;;;;;;;4.35;70.88;98903.22;4452767;32;33197;-64
2021/12/10 09:37:15;;;;;;;;;;;;;;;3.97;72.14;98907.09;4441700;32;33969;-64
2021/12/10 09:39:43;;;;;;;;;;;;;;;4.18;72.15;98901.44;4451175;32;33661;-64
2021/12/10 09:42:11;;;;;;;;;;;;;;;3.90;74.38;98897.31;4454765;32;34291;-64
2021/12/10 09:44:38;;;;;;;;;;;;;;;3.50;75.47;98905.28;4454322;32;34778;-64
2021/12/10 09:47:07;;;;;;;;;;;;;;;3.24;76.54;98902.06;4452671;32;33863;-64
2021/12/10 09:49:35;;;;;;;;;;;;;;;3.37;77.33;98902.81;4453983;32;34261;-64
2021/12/10 09:52:04;;;;;;;;;;;;;;;3.09;78.25;98903.72;4460983;32;33387;-64
2021/12/10 09:54:32;;;;;;;;;;;;;;;3.39;78.10;98901.22;4458244;32;34586;-64
2021/12/10 09:57:07;;;;;;;;;;;;;;;3.45;77.45;98893.88;4462157;32;35221;-64
2021/12/10 09:59:35;;;;;;;;;;;;;;;3.44;78.25;98898.13;4440238;32;33423;-63
2021/12/10 10:02:03;;;;;;;;;;;;;;;3.55;77.78;98896.19;4461790;32;35066;-64
2021/12/10 10:04:35;;;;;;;;;;;;;;;3.74;75.54;98901.56;4456507;32;34012;-65
2021/12/10 10:07:05;;;;;;;;;;;;;;;4.09;73.33;98902.66;4464243;32;34517;-65
2021/12/10 10:09:32;;;;;;;;;;;;;;;4.79;70.36;98904.75;4452710;32;33468;-65
2021/12/10 10:12:02;;;;;;;;;;;;;;;5.52;68.02;98904.19;4455771;32;33881;-64
2021/12/10 10:14:29;;;;;;;;;;;;;;;5.82;66.63;98898.81;4458695;32;34141;-65
2021/12/10 10:16:57;;;;;;;;;;;;;;;5.86;65.58;98898.16;4456935;32;34228;-64
2021/12/10 10:19:25;;;;;;;;;;;;;;;6.12;64.79;98901.13;4449367;32;33641;-65
2021/12/10 10:21:54;;;;;;;;;;;;;;;6.11;64.05;98900.28;4429516;32;33199;-64
2021/12/10 10:24:22;;;;;;;;;;;;;;;5.54;64.96;98889.75;4445217;32;33670;-66
2021/12/10 10:26:59;;;;;;;;;;;;;;;5.83;64.22;98892.88;4457898;32;35017;-65
2021/12/10 10:29:28;;;;;;;;;;;;;;;5.54;65.30;98886.28;4453574;32;33555;-65
2021/12/10 10:31:58;;;;;;;;;;;;;;;5.97;63.92;98879.03;4453289;32;34141;-64
2021/12/10 10:34:26;;;;;;;;;;;;;;;6.21;63.60;98883.59;4455359;32;34236;-65
2021/12/10 10:36:53;;;;;;;;;;;;;;;6.38;63.05;98862.09;4440063;32;33913;-66
2021/12/10 10:39:22;;;;;;;;;;;;;;;6.64;62.01;98857.25;4453835;32;32613;-66
2021/12/10 10:41:52;;;;;;;;;;;;;;;6.62;61.46;98852.03;4462302;32;33996;-64
2021/12/10 10:44:20;;;;;;;;;;;;;;;6.33;65.81;98847.25;4457022;32;35340;-65
2021/12/10 10:46:52;;;;;;;;;;;;;;;6.59;62.60;98848.47;4446404;32;34249;-65
2021/12/10 10:49:30;;;;;;;;;;;;;;;6.61;61.46;98844.28;4451082;32;33265;-64
2021/12/10 10:51:57;;;;;;;;;;;;;;;6.54;62.07;98837.06;4453518;32;34606;-65
2021/12/10 10:54:29;;;;;;;;;;;;;;;6.44;63.20;98831.50;4453798;32;33971;-65
2021/12/10 10:56:56;;;;;;;;;;;;;;;5.94;65.35;98835.16;4456539;32;34525;-65
2021/12/10 10:59:26;;;;;;;;;;;;;;;5.82;66.14;98826.87;4452547;32;33354;-65
2021/12/10 11:02:06;;;;;;;;;;;;;;;5.41;67.68;98829.19;4459552;32;34402;-64
2021/12/10 11:04:45;;;;;;;;;;;;;;;5.16;68.98;98827.09;4455182;32;34305;-64
2021/12/10 11:07:14;;;;;;;;;;;;;;;5.44;68.50;98828.44;4454364;32;34867;-64
2021/12/10 11:09:46;;;;;;;;;;;;;;;5.16;69.89;98821.94;4457034;32;33419;-64
2021/12/10 11:12:15;;;;;;;;;;;;;;;4.76;71.29;98817.34;4453767;32;33873;-64
2021/12/10 11:14:44;;;;;;;;;;;;;;;4.63;72.36;98813.25;4454775;32;34223;-64
2021/12/10 11:17:16;;;;;;;;;;;;;;;4.56;72.00;98817.97;4458123;32;35064;-63
2021/12/10 11:20:09;;;;;;;;;;;;;;;4.50;72.57;98822.00;4452806;32;34352;-63
2021/12/10 11:22:44;;;;;;;;;;;;;;;5.34;69.94;98808.28;4461239;32;33961;-65
2021/12/10 11:25:14;;;;;;;;;;;;;;;5.86;67.96;98803.06;4444471;32;34012;-65
2021/12/10 11:27:42;;;;;;;;;;;;;;;4.82;70.60;98811.66;4447557;32;33976;-64
2021/12/10 11:30:12;;;;;;;;;;;;;;;4.09;73.45;98814.66;4445766;32;33733;-65
2021/12/10 11:32:46;;;;;;;;;;;;;;;3.59;75.95;98813.59;4453351;32;33176;-64
2021/12/10 11:35:15;;;;;;;;;;;;;;;3.97;75.15;98817.44;4452539;32;33627;-65
2021/12/10 11:37:43;;;;;;;;;;;;;;;4.53;72.91;98800.75;4450768;32;34931;-64
2021/12/10 11:40:27;;;;;;;;;;;;;;;5.22;70.46;98801.72;4453417;32;34178;-64
2021/12/10 11:43:03;;;;;;;;;;;;;;;4.97;71.26;98803.87;4453528;32;34379;-65
2021/12/10 11:45:43;;;;;;;;;;;;;;;4.68;72.15;98801.56;4439762;32;34999;-65
2021/12/10 11:48:18;;;;;;;;;;;;;;;5.77;68.55;98802.63;4442106;32;34890;-64
2021/12/10 11:50:56;;;;;;;;;;;;;;;5.37;69.83;98809.31;4453051;32;33421;-63
2021/12/10 11:53:23;;;;;;;;;;;;;;;5.85;67.90;98814.16;4453804;32;34308;-64
2021/12/10 11:55:54;;;;;;;;;;;;;;;5.74;67.60;98803.38;4458493;32;34053;-64
2021/12/10 11:58:21;;;;;;;;;;;;;;;6.13;66.76;98802.66;4439707;32;33702;-64
2021/12/10 12:00:50;;;;;;;;;;;;;;;5.15;69.59;98799.63;4452765;32;33994;-65
2021/12/10 12:03:20;;;;;;;;;;;;;;;5.43;68.93;98801.03;4459826;32;34657;-64
2021/12/10 12:05:49;;;;;;;;;;;;;;;5.42;67.95;98794.13;4451196;32;33859;-64
2021/12/10 12:08:17;;;;;;;;;;;;;;;6.12;66.06;98780.28;4452296;32;33857;-64
2021/12/10 12:10:49;;;;;;;;;;;;;;;5.55;68.31;98786.19;4457220;32;33382;-64
2021/12/10 12:13:33;;;;;;;;;;;;;;;4.81;71.01;98792.81;4461648;32;34585;-64
2021/12/10 12:16:06;;;;;;;;;;;;;;;4.12;74.13;98797.75;4457888;32;33964;-64
2021/12/10 12:18:35;;;;;;;;;;;;;;;4.26;73.58;98807.88;4450790;32;34162;-64
2021/12/10 12:27:05;;;;;;;;;;;;;;;4.99;70.99;98797.13;4457422;32;32929;-64
2021/12/10 12:29:57;;;;;;;;;;;;;;;4.34;72.68;98788.66;4455893;32;34954;-64
2021/12/10 12:32:31;;;;;;;;;;;;;;;4.75;71.15;98782.22;4458416;32;33978;-64
2021/12/10 12:35:19;;;;;;;;;;;;;;;5.03;70.51;98775.94;4448917;32;33034;-64
2021/12/10 12:37:46;;;;;;;;;;;;;;;5.06;70.42;98783.78;4451359;32;35041;-64
2021/12/10 12:40:33;;;;;;;;;;;;;;;3.25;77.99;98785.25;4461542;32;34993;-65
2021/12/10 12:43:05;;;;;;;;;;;;;;;3.59;77.17;98780.31;4462390;32;33618;-65
2021/12/10 12:45:37;;;;;;;;;;;;;;;3.30;78.13;98774.47;4451181;32;34853;-64
2021/12/10 12:48:24;;;;;;;;;;;;;;;3.23;78.95;98764.66;4456845;32;34898;-63
2021/12/10 12:50:55;;;;;;;;;;;;;;;3.41;78.14;98767.38;4454189;32;34156;-65
2021/12/10 12:53:25;;;;;;;;;;;;;;;3.39;77.80;98768.09;4458006;32;32481;-63
2021/12/10 12:55:54;;;;;;;;;;;;;;;3.01;79.04;98774.47;4453848;32;34377;-64
2021/12/10 12:58:45;;;;;;;;;;;;;;;3.27;78.07;98761.50;4454275;32;32920;-64
2021/12/10 13:01:26;;;;;;;;;;;;;;;3.22;78.79;98757.78;4443579;32;35149;-64
2021/12/10 13:03:58;;;;;;;;;;;;;;;3.66;78.24;98756.81;4456365;32;33695;-65
2021/12/10 13:06:54;;;;;;;;;;;;;;;4.16;75.23;98755.25;4459520;32;33974;-64
2021/12/10 13:09:28;;;;;;;;;;;;;;;3.57;77.91;98758.87;4451466;32;33933;-64
2021/12/10 13:12:09;;;;;;;;;;;;;;;4.31;74.27;98755.19;4435213;32;32535;-64
2021/12/10 13:14:49;;;;;;;;;;;;;;;4.32;74.18;98754.34;4448076;32;33674;-64
2021/12/10 13:17:29;;;;;;;;;;;;;;;4.18;74.79;98760.44;4453878;32;33553;-64
2021/12/10 13:19:59;;;;;;;;;;;;;;;3.97;75.31;98755.94;4442192;32;34424;-64
2021/12/10 13:22:27;;;;;;;;;;;;;;;3.59;77.13;98752.16;4454503;32;34341;-64
2021/12/10 13:24:57;;;;;;;;;;;;;;;4.40;73.86;98745.38;4457271;32;33513;-64
2021/12/10 13:27:24;;;;;;;;;;;;;;;3.92;75.03;98741.97;4452417;32;34729;-64